METAR Data
IDs: Format: Raw Decoded Include TAF

Data at: 0323 UTC 12 Dec 2018

FNLU 120300Z 16005KT 8000 BKN020 25/23 Q1013

TAF FNLU 112300Z 1200/1306 17007KT 8000 FEW020 SCT070
  TEMPO 1203/1207 12008KT 9000 FEW020 BKN070
  BECMG 1209/1211 28004KT 9999 FEW020 SCT070
  TEMPO 1216/1220 21010KT 9999 FEW020



TAF FNCA 112100Z 1200/1212 VRB03KT 8000 SCT014
  BECMG 1208/1210 20008KT 9999 FEW020 FEW028CB



TAF FNBG 112100Z 1200/1212 VRB03KT 9000 SCT018
  PROB30
  TEMPO 1201/1205 28012KT CAVOK



TAF FNHU 112100Z 1200/1212 VRB03KT 7000 SCT018
  TEMPO 1202/1206 27008KT 9999 FEW010 BKN070
  BECMG 1210/1212 24007KT 6000 +TSRA BKN013 FEW030CB



TAF FNUE 112100Z 1200/1212 31010KT 8000 TSRA BKN016 FEW030CB
  PROB30
  TEMPO 1204/1208 16007KT 9000 -RA BKN031



TAF FNGI 112100Z 1200/1212 27005KT 8000 NSC
  PROB30
  TEMPO 1204/1208 22006KT CAVOK



TAF FNUB 112100Z 1200/1212 26008KT 9999 SCT030
  TEMPO 1205/1209 04009KT CAVOK



TAF FNMO 112100Z 1200/1212 26010KT 9000 FEW014
  BECMG 1210/1212 00000KT CAVOK



TAF FNUG 112100Z 1200/1212 18006KT 7000 TSRA FEW020 SCT090
  PROB30
  TEMPO 1203/1207 36006KT 5000 +RA OVC012
  BECMG 1209/1211 00000KT 4000 DZ OVC013



TAF FNMA 112100Z 1200/1212 VRB03KT 9000 SCT022
  PROB30
  TEMPO 1205/1209 27008KT 9999 FEW016 BKN030



TAF FNSA 112100Z 1200/1212 00000KT 9999 RA FEW010 BKN025
  BECMG 1208/1210 09005KT 9999 SCT020 SCT100



TAF FNSO 112100Z 1200/1212 VRB03KT 8000 SCT018
  BECMG 1209/1211 24006KT 9999 SCT015 BKN080



TAF FNBC 112100Z 1200/1212 20008KT 9999 FEW020 FEW028CB
  BECMG 1210/1212 24006KT 9999 SCT015 BKN080


No TAF found for FNSU

TAF FNDU 112100Z 1200/1212 VRB03KT 7000 TSRA SCT016 BKN020 FEW023CB
  TEMPO 1207/1211 00000KT 9999 -RA FEW016



TAF FNME 112100Z 1200/1212 18010KT 7000 FEW015 BKN060
  TEMPO 1205/1209 24006KT 9999 SCT040



TAF FNCT 112100Z 1200/1212 28012KT CAVOK
  PROB40
  TEMPO 1202/1206 VRB03KT 9000 SCT018



TAF FNKU 112100Z 1200/1212 18010KT 7000 FEW015 BKN060
  TEMPO 1203/1207 27010KT CAVOK